• Join FlightAware (Why Join?)
  • Login
  • US Flag 
09:45AM EDT


 

Airport Tracker/Info


-or-


 

Live Flight TrackerFlight Track Log ✈ N749SS ✈ 29-Oct-2013 ✈ KMKC - KAPF

Flight Track Log - Related Links

Times and Time Zones

All times are in EDT time to prevent confusion due to time zone crossing. See the N749SS flight status page for this flight to view local times or setup timezone preferences in your user account.

Time Position Orientation Groundspeed Altitude Reporting Facility
EDT Latitude Longitude Course Direction KTS MPH feet Rate Location/Type
04:26PM 39.1000 -94.6000 228° Southwest 201 231 1,400  Level Kansas City TRACON
04:27PM 39.0808 -94.6272 228° Southwest 238 274 3,000 3,240 Climbing Kansas City Center
04:28PM 39.0386 -94.6814 225° Southwest 236 272 6,500 3,720 Climbing Kansas City Center
04:29PM 38.9583 -94.6619 169° South 262 302 10,800 3,600 Climbing Kansas City Center
04:30PM 38.8864 -94.6442 169° South 271 312 14,000 2,940 Climbing Kansas City Center
04:31PM 38.8083 -94.6242 169° South 299 344 16,900 2,700 Climbing Kansas City Center
04:32PM 38.7114 -94.5997 169° South 316 364 19,700 1,980 Climbing Kansas City Center
04:33PM 38.6392 -94.5136 137° Southeast 379 436 21,000 1,200 Climbing Kansas City Center
04:34PM 38.5517 -94.3850 131° Southeast 425 489 22,200 960 Climbing Kansas City Center
04:35PM 38.4700 -94.2672 132° Southeast 460 529 23,000 360 Climbing Kansas City Center
04:36PM 38.3692 -94.1211 131° Southeast 487 560 23,000  Level Kansas City Center
04:37PM 38.2775 -93.9864 131° Southeast 489 563 23,000 180 Level Kansas City Center
04:38PM 38.1864 -93.8547 131° Southeast 493 567 23,400 480 Climbing Kansas City Center
04:39PM 38.0931 -93.7242 132° Southeast 497 572 24,000 600 Climbing Kansas City Center
04:40PM 37.9989 -93.5886 131° Southeast 507 583 24,700 480 Climbing Kansas City Center
04:41PM 37.9053 -93.4525 131° Southeast 511 588 25,000 600 Climbing Kansas City Center
04:42PM 37.7911 -93.2906 132° Southeast 514 592 26,000 1,380 Climbing Kansas City Center
04:43PM 37.6953 -93.1569 132° Southeast 515 593 27,900 1,860 Climbing Kansas City Center
04:44PM 37.6025 -93.0258 132° Southeast 509 586 29,900 1,860 Climbing Kansas City Center
04:45PM 37.5086 -92.8950 132° Southeast 506 582 31,800 1,800 Climbing Kansas City Center
04:46PM 37.4153 -92.7644 132° Southeast 505 581 33,700 1,980 Climbing Kansas City Center
04:47PM 37.3025 -92.6061 132° Southeast 506 582 36,000 2,040 Climbing Kansas City Center
04:48PM 37.2081 -92.4758 132° Southeast 507 583 38,000 1,440 Climbing Kansas City Center
04:49PM 37.1131 -92.3442 132° Southeast 507 583 39,000 480 Climbing Kansas City Center
04:50PM 37.0147 -92.2103 133° Southeast 514 592 39,000  Level Kansas City Center
04:51PM 36.9158 -92.0758 133° Southeast 519 597 39,000  Level Kansas City Center
04:52PM 36.8181 -91.9428 133° Southeast 520 598 39,000  Level Kansas City Center
04:53PM 36.6986 -91.7825 133° Southeast 523 602 39,000  Level Kansas City Center
04:54PM 36.5989 -91.6494 133° Southeast 525 604 39,000  Level Kansas City Center
04:55PM 36.4975 -91.5131 133° Southeast 527 606 39,000  Level Kansas City Center
04:56PM 36.3953 -91.3783 133° Southeast 528 608 39,000  Level Kansas City Center
04:58PM 36.2497 -91.1908 134° Southeast 525 604 39,000  Level Memphis Center
04:59PM 36.1544 -91.0614 132° Southeast 525 604 39,000  Level Memphis Center
05:00PM 36.0489 -90.9269 134° Southeast 525 604 39,000  Level Memphis Center
05:01PM 35.9494 -90.7956 133° Southeast 530 610 39,000  Level Memphis Center
05:02PM 35.8475 -90.6669 134° Southeast 530 610 39,000  Level Memphis Center
05:03PM 35.7478 -90.5336 133° Southeast 530 610 39,000  Level Memphis Center
05:04PM 35.6622 -90.4133 131° Southeast 520 598 39,000  Level Memphis Center
05:05PM 35.5622 -90.2806 133° Southeast 515 593 39,000  Level Memphis Center
05:06PM 35.4536 -90.1378 133° Southeast 523 602 39,000  Level Memphis Center
05:07PM 35.3489 -90.0058 134° Southeast 523 602 39,000  Level Memphis Center
05:08PM 35.2464 -89.8767 134° Southeast 532 612 39,000  Level Memphis Center
05:09PM 35.1456 -89.7450 133° Southeast 527 606 39,000  Level Memphis Center
05:10PM 35.0425 -89.6114 133° Southeast 527 606 39,000  Level Memphis Center
05:11PM 34.9481 -89.4906 134° Southeast 532 612 39,000  Level Memphis Center
05:12PM 34.8428 -89.3653 136° Southeast 532 612 39,000  Level Memphis Center
05:13PM 34.7394 -89.2400 135° Southeast 532 612 39,000  Level Memphis Center
05:14PM 34.6358 -89.1128 135° Southeast 526 605 39,000  Level Memphis Center
05:15PM 34.5322 -88.9831 134° Southeast 526 605 39,000  Level Memphis Center
05:16PM 34.4200 -88.8439 134° Southeast 526 605 39,000  Level Memphis Center
05:17PM 34.3269 -88.7375 137° Southeast 519 597 39,000  Level Memphis Center
05:18PM 34.2250 -88.6089 134° Southeast 519 597 39,000  Level Memphis Center
05:19PM 34.1189 -88.4831 136° Southeast 526 605 39,000  Level Memphis Center
05:20PM 34.0167 -88.3550 134° Southeast 526 605 39,000  Level Memphis Center
05:22PM 33.8308 -88.1275 134° Southeast 526 605 39,000  Level Atlanta Center
05:23PM 33.7264 -88.0025 135° Southeast 526 605 39,000  Level Atlanta Center
05:24PM 33.6197 -87.8753 135° Southeast 531 611 39,000  Level Atlanta Center
05:25PM 33.5150 -87.7486 135° Southeast 531 611 39,000  Level Atlanta Center
05:26PM 33.4103 -87.6247 135° Southeast 531 611 39,000  Level Atlanta Center
05:27PM 33.3053 -87.4961 134° Southeast 531 611 39,000  Level Atlanta Center
05:28PM 33.2003 -87.3703 135° Southeast 531 611 39,000  Level Atlanta Center
05:29PM 33.0908 -87.2447 136° Southeast 536 617 39,000  Level Atlanta Center
05:30PM 32.9775 -87.1117 135° Southeast 536 617 39,000  Level Atlanta Center
05:31PM 32.8719 -86.9869 135° Southeast 536 617 39,000  Level Atlanta Center
05:32PM 32.7664 -86.8622 135° Southeast 536 617 39,000  Level Atlanta Center
05:33PM 32.6628 -86.7356 134° Southeast 536 617 39,000  Level Atlanta Center
05:34PM 32.5525 -86.6139 137° Southeast 536 617 39,000  Level Atlanta Center
05:35PM 32.4486 -86.4928 135° Southeast 536 617 39,000  Level Atlanta Center
05:36PM 32.3442 -86.3817 138° Southeast 535 616 39,000  Level Atlanta Center
05:37PM 32.2403 -86.2564 134° Southeast 546 628 39,000  Level Atlanta Center
05:38PM 32.1256 -86.1211 135° Southeast 538 619 39,000  Level Atlanta Center
05:39PM 32.0211 -86.0108 138° Southeast 549 632 39,000  Level Atlanta Center
05:42PM 31.6575 -85.5969 136° Southeast 540 621 39,000  Level Jacksonville Center
05:43PM 31.5494 -85.4742 136° Southeast 540 621 39,000  Level Jacksonville Center
05:44PM 31.4392 -85.3519 137° Southeast 540 621 39,000  Level Jacksonville Center
05:45PM 31.3228 -85.2150 135° Southeast 559 643 39,000  Level Jacksonville Center
05:46PM 31.2242 -85.1131 139° Southeast 551 634 39,000  Level Jacksonville Center
05:47PM 31.1069 -85.0083 143° Southeast 544 626 39,000  Level Jacksonville Center
05:48PM 30.9667 -84.9181 151° Southeast 530 610 39,000  Level Jacksonville Center
05:49PM 30.8361 -84.8403 153° Southeast 524 603 39,000  Level Jacksonville Center
05:50PM 30.7036 -84.7650 154° Southeast 524 603 39,000  Level Jacksonville Center
05:51PM 30.5900 -84.6953 152° Southeast 524 603 39,000  Level Jacksonville Center
05:52PM 30.4594 -84.6181 153° Southeast 524 603 39,000  Level Jacksonville Center
05:53PM 30.3247 -84.5411 154° Southeast 524 603 39,000  Level Jacksonville Center
05:54PM 30.1942 -84.4644 153° Southeast 524 603 39,000  Level Jacksonville Center
05:55PM 30.0656 -84.3878 153° Southeast 524 603 39,000  Level Jacksonville Center
05:56PM 29.9350 -84.3114 153° Southeast 530 610 39,000  Level Jacksonville Center
05:57PM 29.8022 -84.2353 154° Southeast 525 604 39,000  Level Jacksonville Center
05:58PM 29.6611 -84.1592 155° Southeast 525 604 39,000  Level Jacksonville Center
05:59PM 29.5303 -84.0811 153° Southeast 525 604 39,000  Level Jacksonville Center
06:00PM 29.3994 -84.0058 153° Southeast 525 604 39,000  Level Jacksonville Center
06:01PM 29.2811 -83.9378 153° Southeast 530 610 39,000  Level Jacksonville Center
06:02PM 29.1500 -83.8603 153° Southeast 530 610 39,000  Level Jacksonville Center
06:03PM 29.0192 -83.7878 154° Southeast 530 610 39,000 -60 Level Jacksonville Center
06:04PM 28.8881 -83.7106 153° Southeast 530 610 38,900 -600 Descending Jacksonville Center
06:05PM 28.7572 -83.6386 154° Southeast 525 604 37,900 -1,020 Descending Jacksonville Center
06:07PM 28.5403 -83.5139 153° Southeast 532 612 36,400 -1,020 Descending Miami Center
06:08PM 28.4083 -83.4378 153° Southeast 538 619 35,400 -720 Descending Miami Center
06:09PM 28.2739 -83.3708 156° South 535 616 35,000 -240 Descending Miami Center
06:10PM 28.1258 -83.3694 180° South 513 590 35,000  Level Miami Center
06:11PM 27.9936 -83.2936 153° Southeast 520 598 35,000 -360 Level Miami Center
06:12PM 27.8706 -83.2044 147° Southeast 525 604 34,300 -1,200 Descending Miami Center
06:13PM 27.7450 -83.1178 149° Southeast 525 604 32,700 -2,100 Descending Miami Center
06:14PM 27.6233 -83.0364 149° Southeast 519 597 30,200 -2,520 Descending Miami Center
06:15PM 27.4997 -82.9525 149° Southeast 519 597 27,700 -2,460 Descending Miami Center
06:16PM 27.3819 -82.8714 149° Southeast 513 590 25,300 -2,220 Descending Miami Center
06:17PM 27.2867 -82.8081 149° Southeast 508 585 23,300 -2,460 Descending Miami Center
06:18PM 27.1586 -82.7244 150° Southeast 501 577 20,400 -2,700 Descending Miami Center
06:19PM 27.0450 -82.6464 149° Southeast 485 558 17,900 -2,400 Descending Miami Center
06:20PM 26.9392 -82.5761 149° Southeast 472 543 15,700 -2,340 Descending Miami Center
06:21PM 26.8333 -82.5056 149° Southeast 447 514 13,300 -2,640 Descending Miami Center
06:22PM 26.7256 -82.4331 149° Southeast 420 483 10,500 -1,680 Descending Miami Center
06:23PM 26.6300 -82.3706 150° Southeast 404 465 10,000 -300 Descending Miami Center
06:24PM 26.5344 -82.3011 147° Southeast 404 465 10,000  Level Miami Center
06:25PM 26.4408 -82.2364 148° Southeast 410 472 10,000  Level Miami Center
06:26PM 26.3492 -82.1697 147° Southeast 398 458 10,000 -480 Level Miami Center
06:27PM 26.2783 -82.1133 144° Southeast 348 400 9,100 -1,440 Descending Miami Center
06:28PM 26.2089 -82.0664 149° Southeast 300 345 7,200 -1,920 Descending Miami Center
06:29PM 26.1458 -82.0197 146° Southeast 283 326 5,300 -1,920 Descending Miami Center
06:31PM 26.1450 -81.7793 66° East  Level FlightAware Approximate
06:38PM 26.1500 -81.7667 66° East  Level FlightAware Approximate
06:39PM 26.1524 -81.7756 66° East  Level Estimated
06:40PM 26.1524 -81.7756 66° East  Level Estimated
06:41PM 26.1524 -81.7756 66° East  Level Estimated
06:42PM 26.1524 -81.7756 66° East  Level Estimated